Arlington, Massachusetts
Current Conditions -  °F | °C
As of 3:56 PM on Tuesday 27 Jan 2015 (Local Time) from KBED Reporting Station
Light Snow Light Snow  
Wind Chill:   Ceiling: 1600
Heat Index: 17°   Visibility: 1mi
Dew Point: 13°   Wind: 14mph
Humidity: 84%   Direction: 350°N
Pressure: 29.53"   Gusts: 22mph
Location:  42.42°N, 71.16°W
Report Text: KBED 272056Z AUTO 35012G19KT 1SM R11/1800VP6000FT -SN BR VV016 M08/M11 A2953 RMK AO2 SLP016 P0000 60000 T10831106 51005 TSNO $
Loading
Personal Weather Stations






























Interactive Weather Map New forecast layout! Learn more

10-Day Weather Forecast

Advertisements
Track Severe Weather on mobile